Time,TemperatureF,DewpointF,PressureIn,WindDirection,WindDirectionDegrees,WindSpeedMPH,WindSpeedGustMPH,Humidity,HourlyPrecipIn,Conditions,Clouds,dailyrainin,SoftwareType,DateUTC
2013-03-18 00:01:00,73.0,40.0,29.79,SE,141,3.0,10.0,30,0.00,,,0.00,,2013-03-18 07:01:00,
2013-03-18 00:11:00,73.0,40.0,29.79,SE,141,3.0,10.0,30,0.00,,,0.00,,2013-03-18 07:11:00,
2013-03-18 00:22:00,73.0,41.0,29.79,SSE,147,3.0,10.0,31,0.00,,,0.00,,2013-03-18 07:22:00,
2013-03-18 00:31:00,73.0,41.0,29.79,SE,133,1.0,6.0,31,0.00,,,0.00,,2013-03-18 07:31:00,
2013-03-18 00:40:00,71.0,40.0,29.80,South,186,0.0,0.0,32,0.00,,,0.00,,2013-03-18 07:40:00,
2013-03-18 00:42:00,73.0,41.0,29.79,SE,133,1.0,6.0,31,0.00,,,0.00,,2013-03-18 07:42:00,
2013-03-18 00:52:00,72.0,41.0,29.80,South,186,0.0,0.0,33,0.00,,,0.00,,2013-03-18 07:52:00,
2013-03-18 01:01:00,71.0,40.0,29.80,South,186,0.0,0.0,32,0.00,,,0.00,,2013-03-18 08:01:00,
2013-03-18 01:11:00,71.0,40.0,29.80,South,186,0.0,0.0,32,0.00,,,0.00,,2013-03-18 08:11:00,
2013-03-18 01:21:00,71.0,40.0,29.80,South,186,0.0,0.0,32,0.00,,,0.00,,2013-03-18 08:21:00,
2013-03-18 01:32:00,71.0,40.0,29.80,South,186,0.0,0.0,32,0.00,,,0.00,,2013-03-18 08:32:00,
2013-03-18 01:52:00,69.0,39.0,29.80,SE,134,0.0,0.0,34,0.00,,,0.00,,2013-03-18 08:52:00,
2013-03-18 02:02:00,68.0,41.0,29.79,SE,134,0.0,0.0,38,0.00,,,0.00,,2013-03-18 09:02:00,
2013-03-18 02:12:00,68.0,41.0,29.79,SE,134,0.0,0.0,38,0.00,,,0.00,,2013-03-18 09:12:00,
2013-03-18 02:22:00,66.0,44.0,29.80,SE,134,0.0,0.0,45,0.00,,,0.00,,2013-03-18 09:22:00,
2013-03-18 02:32:00,65.0,45.0,29.80,SE,133,0.0,0.0,49,0.00,,,0.00,,2013-03-18 09:32:00,
2013-03-18 02:42:00,65.0,45.0,29.80,SE,133,0.0,0.0,49,0.00,,,0.00,,2013-03-18 09:42:00,
2013-03-18 02:53:00,64.0,45.0,29.80,SE,133,0.0,0.0,50,0.00,,,0.00,,2013-03-18 09:53:00,
2013-03-18 03:02:00,63.0,44.0,29.79,SE,134,0.0,0.0,50,0.00,,,0.00,,2013-03-18 10:02:00,
2013-03-18 03:12:00,63.0,44.0,29.79,SE,134,0.0,0.0,50,0.00,,,0.00,,2013-03-18 10:12:00,
2013-03-18 03:23:00,62.0,45.0,29.79,SE,133,0.0,0.0,53,0.00,,,0.00,,2013-03-18 10:23:00,
2013-03-18 03:32:00,61.0,44.0,29.79,SE,133,0.0,0.0,54,0.00,,,0.00,,2013-03-18 10:32:00,
2013-03-18 03:41:00,61.0,44.0,29.79,SE,133,0.0,0.0,54,0.00,,,0.00,,2013-03-18 10:41:00,
2013-03-18 03:53:00,60.0,45.0,29.79,SE,133,0.0,0.0,57,0.00,,,0.00,,2013-03-18 10:53:00,
2013-03-18 04:02:00,60.0,45.0,29.79,SE,133,0.0,0.0,57,0.00,,,0.00,,2013-03-18 11:02:00,
2013-03-18 04:12:00,60.0,45.0,29.79,SE,133,0.0,0.0,57,0.00,,,0.00,,2013-03-18 11:12:00,
2013-03-18 04:21:00,60.0,45.0,29.79,SE,133,0.0,0.0,57,0.00,,,0.00,,2013-03-18 11:21:00,
2013-03-18 04:31:00,59.0,43.0,29.79,SE,133,0.0,0.0,55,0.00,,,0.00,,2013-03-18 11:31:00,
2013-03-18 04:42:00,59.0,43.0,29.79,SE,133,0.0,0.0,55,0.00,,,0.00,,2013-03-18 11:42:00,
2013-03-18 04:52:00,60.0,41.0,29.79,SE,133,0.0,0.0,50,0.00,,,0.00,,2013-03-18 11:52:00,
2013-03-18 05:01:00,60.0,41.0,29.79,SE,133,0.0,0.0,50,0.00,,,0.00,,2013-03-18 12:01:00,
2013-03-18 05:12:00,60.0,41.0,29.79,SE,133,0.0,0.0,50,0.00,,,0.00,,2013-03-18 12:12:00,
2013-03-18 05:22:00,60.0,41.0,29.79,SE,133,0.0,0.0,50,0.00,,,0.00,,2013-03-18 12:22:00,
2013-03-18 05:32:00,60.0,40.0,29.80,SE,133,0.0,0.0,48,0.00,,,0.00,,2013-03-18 12:32:00,
2013-03-18 05:42:00,60.0,40.0,29.80,SE,133,0.0,0.0,48,0.00,,,0.00,,2013-03-18 12:42:00,
2013-03-18 05:51:00,60.0,41.0,29.81,SE,133,0.0,0.0,49,0.00,,,0.00,,2013-03-18 12:51:00,
2013-03-18 06:02:00,60.0,41.0,29.81,SE,133,0.0,0.0,49,0.00,,,0.00,,2013-03-18 13:02:00,
2013-03-18 06:11:00,60.0,41.0,29.81,SE,133,0.0,0.0,49,0.00,,,0.00,,2013-03-18 13:11:00,
2013-03-18 06:21:00,59.0,40.0,29.82,SE,133,0.0,0.0,50,0.00,,,0.00,,2013-03-18 13:21:00,
2013-03-18 06:31:00,59.0,41.0,29.82,SE,133,0.0,0.0,51,0.00,,,0.00,,2013-03-18 13:31:00,
2013-03-18 06:42:00,59.0,41.0,29.82,SE,133,0.0,0.0,51,0.00,,,0.00,,2013-03-18 13:42:00,
2013-03-18 06:52:00,59.0,41.0,29.82,SE,133,0.0,0.0,51,0.00,,,0.00,,2013-03-18 13:52:00,
2013-03-18 07:02:00,57.0,39.0,29.83,SE,133,0.0,0.0,51,0.00,,,0.00,,2013-03-18 14:02:00,
2013-03-18 07:11:00,57.0,39.0,29.83,SE,133,0.0,0.0,51,0.00,,,0.00,,2013-03-18 14:11:00,
2013-03-18 07:22:00,57.0,38.0,29.83,SE,133,0.0,0.0,49,0.00,,,0.00,,2013-03-18 14:22:00,
2013-03-18 07:32:00,57.0,38.0,29.84,SE,133,0.0,0.0,49,0.00,,,0.00,,2013-03-18 14:32:00,
2013-03-18 07:42:00,57.0,38.0,29.84,SE,133,0.0,0.0,49,0.00,,,0.00,,2013-03-18 14:42:00,
2013-03-18 07:52:00,59.0,41.0,29.85,NNE,24,0.0,0.0,52,0.00,,,0.00,,2013-03-18 14:52:00,
2013-03-18 08:01:00,60.0,42.0,29.85,NNE,22,0.0,0.0,51,0.00,,,0.00,,2013-03-18 15:01:00,
2013-03-18 08:21:00,61.0,43.0,29.86,North,0,0.0,0.0,51,0.00,,,0.00,,2013-03-18 15:21:00,
2013-03-18 08:32:00,61.0,42.0,29.86,West,280,0.0,0.0,49,0.00,,,0.00,,2013-03-18 15:32:00,
2013-03-18 08:42:00,61.0,42.0,29.86,West,280,0.0,0.0,49,0.00,,,0.00,,2013-03-18 15:42:00,
2013-03-18 08:52:00,62.0,44.0,29.88,WNW,296,1.0,7.0,51,0.00,,,0.00,,2013-03-18 15:52:00,
2013-03-18 09:02:00,64.0,45.0,29.88,NW,306,2.0,5.0,50,0.00,,,0.00,,2013-03-18 16:02:00,
2013-03-18 09:12:00,64.0,45.0,29.88,NW,306,2.0,5.0,50,0.00,,,0.00,,2013-03-18 16:12:00,
2013-03-18 09:22:00,67.0,47.0,29.90,West,281,1.0,3.0,48,0.00,,,0.00,,2013-03-18 16:22:00,
2013-03-18 09:32:00,67.0,47.0,29.90,West,281,1.0,3.0,48,0.00,,,0.00,,2013-03-18 16:32:00,
2013-03-18 09:42:00,67.0,47.0,29.90,West,281,1.0,3.0,48,0.00,,,0.00,,2013-03-18 16:42:00,
2013-03-18 09:52:00,70.0,45.0,29.90,NNW,329,0.0,3.0,41,0.00,,,0.00,,2013-03-18 16:52:00,
2013-03-18 10:02:00,72.0,44.0,29.90,NW,322,0.0,0.0,37,0.00,,,0.00,,2013-03-18 17:02:00,
2013-03-18 10:12:00,72.0,44.0,29.90,NW,322,0.0,0.0,37,0.00,,,0.00,,2013-03-18 17:12:00,
2013-03-18 10:21:00,74.0,46.0,29.90,North,11,0.0,3.0,37,0.00,,,0.00,,2013-03-18 17:21:00,
2013-03-18 10:32:00,74.0,46.0,29.90,North,11,0.0,3.0,37,0.00,,,0.00,,2013-03-18 17:32:00,
2013-03-18 10:42:00,74.0,46.0,29.90,North,11,0.0,3.0,37,0.00,,,0.00,,2013-03-18 17:42:00,
2013-03-18 10:52:00,74.0,46.0,29.90,North,11,0.0,3.0,37,0.00,,,0.00,,2013-03-18 17:52:00,
2013-03-18 11:01:00,80.0,47.0,29.89,SSE,165,1.0,7.0,32,0.00,,,0.00,,2013-03-18 18:01:00,
2013-03-18 11:12:00,80.0,47.0,29.89,SSE,165,1.0,7.0,32,0.00,,,0.00,,2013-03-18 18:12:00,
2013-03-18 11:22:00,80.0,46.0,29.89,South,172,3.0,7.0,30,0.00,,,0.00,,2013-03-18 18:22:00,
2013-03-18 11:32:00,81.0,46.0,29.90,South,176,6.0,15.0,29,0.00,,,0.00,,2013-03-18 18:32:00,
2013-03-18 11:42:00,81.0,46.0,29.90,South,176,6.0,15.0,29,0.00,,,0.00,,2013-03-18 18:42:00,
2013-03-18 11:52:00,81.0,46.0,29.89,SW,229,6.0,12.0,29,0.00,,,0.00,,2013-03-18 18:52:00,
2013-03-18 12:02:00,82.0,46.0,29.89,South,188,5.0,13.0,28,0.00,,,0.00,,2013-03-18 19:02:00,
2013-03-18 12:11:00,82.0,46.0,29.89,South,188,5.0,13.0,28,0.00,,,0.00,,2013-03-18 19:11:00,
2013-03-18 12:22:00,82.0,46.0,29.89,SSE,147,4.0,12.0,28,0.00,,,0.00,,2013-03-18 19:22:00,
2013-03-18 12:31:00,82.0,46.0,29.89,SSE,147,4.0,12.0,28,0.00,,,0.00,,2013-03-18 19:31:00,
2013-03-18 12:41:00,82.0,46.0,29.89,SSE,147,4.0,12.0,28,0.00,,,0.00,,2013-03-18 19:41:00,
2013-03-18 12:52:00,83.0,44.0,29.88,SE,140,3.0,12.0,25,0.00,,,0.00,,2013-03-18 19:52:00,
2013-03-18 13:02:00,83.0,46.0,29.88,SSE,159,4.0,12.0,27,0.00,,,0.00,,2013-03-18 20:02:00,
2013-03-18 13:12:00,83.0,46.0,29.88,SSE,159,4.0,12.0,27,0.00,,,0.00,,2013-03-18 20:12:00,
2013-03-18 13:22:00,85.0,46.0,29.88,SSE,152,4.0,10.0,26,0.00,,,0.00,,2013-03-18 20:22:00,
2013-03-18 13:32:00,84.0,45.0,29.87,SSW,204,5.0,12.0,26,0.00,,,0.00,,2013-03-18 20:32:00,
2013-03-18 13:42:00,84.0,45.0,29.87,SSW,204,5.0,12.0,26,0.00,,,0.00,,2013-03-18 20:42:00,
2013-03-18 13:52:00,85.0,45.0,29.86,SSE,160,4.0,13.0,25,0.00,,,0.00,,2013-03-18 20:52:00,
2013-03-18 14:02:00,84.0,43.0,29.86,SSW,209,3.0,10.0,24,0.00,,,0.00,,2013-03-18 21:02:00,
2013-03-18 14:11:00,84.0,43.0,29.86,SSW,209,3.0,10.0,24,0.00,,,0.00,,2013-03-18 21:11:00,
2013-03-18 14:21:00,85.0,44.0,29.85,SSW,192,2.0,9.0,24,0.00,,,0.00,,2013-03-18 21:21:00,
2013-03-18 14:32:00,86.0,45.0,29.84,SSW,194,2.0,10.0,24,0.00,,,0.00,,2013-03-18 21:32:00,
2013-03-18 14:42:00,86.0,45.0,29.84,SSW,194,2.0,10.0,24,0.00,,,0.00,,2013-03-18 21:42:00,
2013-03-18 14:52:00,86.0,44.0,29.84,South,180,2.0,10.0,23,0.00,,,0.00,,2013-03-18 21:52:00,
2013-03-18 15:02:00,86.0,40.0,29.83,SSE,167,2.0,9.0,20,0.00,,,0.00,,2013-03-18 22:02:00,
2013-03-18 15:12:00,86.0,40.0,29.83,SSE,167,2.0,9.0,20,0.00,,,0.00,,2013-03-18 22:12:00,
2013-03-18 15:22:00,86.0,43.0,29.82,West,263,2.0,6.0,22,0.00,,,0.00,,2013-03-18 22:22:00,
2013-03-18 15:32:00,87.0,42.0,29.82,SW,223,4.0,7.0,21,0.00,,,0.00,,2013-03-18 22:32:00,
2013-03-18 15:41:00,87.0,42.0,29.82,SW,223,4.0,7.0,21,0.00,,,0.00,,2013-03-18 22:41:00,
2013-03-18 15:52:00,87.0,42.0,29.82,SW,223,4.0,7.0,21,0.00,,,0.00,,2013-03-18 22:52:00,
2013-03-18 16:02:00,86.0,43.0,29.81,West,260,1.0,7.0,22,0.00,,,0.00,,2013-03-18 23:02:00,
2013-03-18 16:11:00,86.0,43.0,29.81,West,260,1.0,7.0,22,0.00,,,0.00,,2013-03-18 23:11:00,
2013-03-18 16:22:00,87.0,41.0,29.81,SW,231,5.0,12.0,20,0.00,,,0.00,,2013-03-18 23:22:00,
2013-03-18 16:32:00,87.0,41.0,29.81,WNW,290,2.0,7.0,20,0.00,,,0.00,,2013-03-18 23:32:00,
2013-03-18 16:41:00,87.0,41.0,29.81,WNW,290,2.0,7.0,20,0.00,,,0.00,,2013-03-18 23:41:00,
2013-03-18 16:52:00,87.0,41.0,29.81,South,190,0.0,5.0,20,0.00,,,0.00,,2013-03-18 23:52:00,
2013-03-18 17:01:00,87.0,40.0,29.81,SSW,206,3.0,12.0,19,0.00,,,0.00,,2013-03-19 00:01:00,
2013-03-18 17:11:00,87.0,40.0,29.81,SSW,206,3.0,12.0,19,0.00,,,0.00,,2013-03-19 00:11:00,
2013-03-18 17:22:00,86.0,43.0,29.81,WSW,256,4.0,9.0,22,0.00,,,0.00,,2013-03-19 00:22:00,
2013-03-18 17:32:00,85.0,43.0,29.81,SW,235,2.0,6.0,23,0.00,,,0.00,,2013-03-19 00:32:00,
2013-03-18 17:52:00,84.0,43.0,29.81,WSW,248,2.0,7.0,24,0.00,,,0.00,,2013-03-19 00:52:00,
2013-03-18 18:01:00,84.0,43.0,29.81,WSW,238,2.0,5.0,24,0.00,,,0.00,,2013-03-19 01:01:00,
2013-03-18 18:21:00,83.0,44.0,29.80,SW,236,3.0,6.0,25,0.00,,,0.00,,2013-03-19 01:21:00,
2013-03-18 18:31:00,83.0,44.0,29.80,SW,236,3.0,6.0,25,0.00,,,0.00,,2013-03-19 01:31:00,
2013-03-18 18:42:00,83.0,44.0,29.80,SW,236,3.0,6.0,25,0.00,,,0.00,,2013-03-19 01:42:00,
2013-03-18 18:52:00,81.0,44.0,29.81,WSW,243,1.0,5.0,27,0.00,,,0.00,,2013-03-19 01:52:00,
2013-03-18 19:01:00,81.0,45.0,29.81,WSW,254,0.0,3.0,28,0.00,,,0.00,,2013-03-19 02:01:00,
2013-03-18 19:12:00,81.0,45.0,29.81,WSW,254,0.0,3.0,28,0.00,,,0.00,,2013-03-19 02:12:00,
2013-03-18 19:21:00,80.0,44.0,29.81,WSW,247,0.0,2.0,28,0.00,,,0.00,,2013-03-19 02:21:00,
2013-03-18 19:32:00,80.0,44.0,29.81,WSW,247,0.0,2.0,28,0.00,,,0.00,,2013-03-19 02:32:00,
2013-03-18 19:41:00,80.0,44.0,29.81,WSW,247,0.0,2.0,28,0.00,,,0.00,,2013-03-19 02:41:00,
2013-03-18 19:52:00,79.0,45.0,29.82,WSW,245,0.0,1.0,30,0.00,,,0.00,,2013-03-19 02:52:00,
2013-03-18 20:02:00,78.0,45.0,29.83,SE,139,0.0,1.0,31,0.00,,,0.00,,2013-03-19 03:02:00,
2013-03-18 20:12:00,78.0,45.0,29.83,SE,139,0.0,1.0,31,0.00,,,0.00,,2013-03-19 03:12:00,
2013-03-18 20:21:00,77.0,42.0,29.83,SE,128,0.0,1.0,29,0.00,,,0.00,,2013-03-19 03:21:00,
2013-03-18 20:32:00,77.0,41.0,29.83,SE,128,0.0,1.0,28,0.00,,,0.00,,2013-03-19 03:32:00,
2013-03-18 20:42:00,77.0,41.0,29.83,SE,128,0.0,1.0,28,0.00,,,0.00,,2013-03-19 03:42:00,
2013-03-18 20:53:00,77.0,40.0,29.83,ESE,121,1.0,3.0,27,0.00,,,0.00,,2013-03-19 03:53:00,
2013-03-18 21:02:00,77.0,40.0,29.83,SSE,153,1.0,5.0,27,0.00,,,0.00,,2013-03-19 04:02:00,
2013-03-18 21:12:00,77.0,40.0,29.83,SSE,153,1.0,5.0,27,0.00,,,0.00,,2013-03-19 04:12:00,
2013-03-18 21:22:00,76.0,39.0,29.83,SE,134,2.0,7.0,26,0.00,,,0.00,,2013-03-19 04:22:00,
2013-03-18 21:33:00,76.0,39.0,29.83,SE,134,2.0,7.0,26,0.00,,,0.00,,2013-03-19 04:33:00,
2013-03-18 21:42:00,76.0,39.0,29.83,SE,134,2.0,7.0,26,0.00,,,0.00,,2013-03-19 04:42:00,
2013-03-18 21:52:00,76.0,41.0,29.84,SE,141,2.0,7.0,28,0.00,,,0.00,,2013-03-19 04:52:00,
2013-03-18 22:02:00,74.0,40.0,29.84,SSE,161,1.0,7.0,29,0.00,,,0.00,,2013-03-19 05:02:00,
2013-03-18 22:11:00,74.0,40.0,29.84,SSE,161,1.0,7.0,29,0.00,,,0.00,,2013-03-19 05:11:00,
2013-03-18 22:22:00,73.0,40.0,29.85,SSE,168,1.0,9.0,30,0.00,,,0.00,,2013-03-19 05:22:00,
2013-03-18 22:30:00,72.0,45.0,29.85,South,178,2.0,6.0,38,0.00,,,0.00,,2013-03-19 05:30:00,
2013-03-18 22:32:00,73.0,40.0,29.85,SSE,168,1.0,9.0,30,0.00,,,0.00,,2013-03-19 05:32:00,
2013-03-18 22:42:00,73.0,40.0,29.85,SSE,168,1.0,9.0,30,0.00,,,0.00,,2013-03-19 05:42:00,
2013-03-18 22:52:00,72.0,45.0,29.85,South,178,2.0,6.0,38,0.00,,,0.00,,2013-03-19 05:52:00,
2013-03-18 23:01:00,72.0,45.0,29.85,South,178,2.0,6.0,38,0.00,,,0.00,,2013-03-19 06:01:00,
2013-03-18 23:12:00,72.0,45.0,29.85,South,178,2.0,6.0,38,0.00,,,0.00,,2013-03-19 06:12:00,
2013-03-18 23:21:00,72.0,45.0,29.85,South,178,2.0,6.0,38,0.00,,,0.00,,2013-03-19 06:21:00,
2013-03-18 23:52:00,69.0,48.0,29.86,South,183,3.0,7.0,48,0.00,,,0.00,,2013-03-19 06:52:00,